Terminal Aerodrome Forecast
Issued by NWS Cleveland, OH

Home | Current Version | Previous Version | Graphics & Text | Print | Product List | Glossary Off
Versions: 1 2 3 4 5 6 7 8 9 10 11 12 13 14 15 16 17 18 19 20 21 22 23 24 25 26 27 28 29 30

000
FTUS41 KCLE 291101 AAC
TAFCLE
TAF AMD
KCLE 291101Z 2911/3012 34005KT 2SM BR VCSH OVC005
      TEMPO 2911/2914 4SM -SHRA BKN010
     FM291400 02008KT P6SM OVC018
     FM291700 01007KT P6SM OVC025
     FM300000 36004KT P6SM BKN035=

USA.gov is the U.S. government's official web portal to all federal, state and local government web resources and services.